Apex, NC (27502)

10:27 AM EST on December 25, 2014 (GMT -0500)
Surrey Meadows | Change Station
CLOSE
Current Station
Personal Weather Station
Location: APEX, NC
Elevation: 476 ft
Nearby Weather Stations

Elev 476 ft 35.73 °N, 78.83 °W | Updated 2 minutes ago

Partly Cloudy
Partly Cloudy
53.1 °F
Feels Like 53.1 °F
N
3.2
Wind Variable Wind from NE

Today
High -- | Low -- °F
--% Chance of Precip.
Yesterday
High -- | Low -- °F
Precip. -- in
7:23 AM 5:07 PM
Waxing Crescent, 17% visible
Pressure 30.02 in
Visibility 10.0 miles
Clouds Few 3500 ft
Scattered Clouds 20000 ft
Dew Point 37 °F
Humidity 55%
Rainfall 0.03 in
Snow Depth Not available.
UV 1 out of 12
Pollen .30 out of 12
Air Quality Not available.
Flu Activity Not available.
METAR KRDU 251451Z 29010G16KT 10SM FEW035 SCT200 12/02 A3002 RMK AO2 SLP165 T01170017 51055

More Conditions Fewer Conditions

Pressure 30.02 in
Visibility 10.0 miles
Clouds Few 3500 ft
Scattered Clouds 20000 ft
Dew Point 37 °F
Humidity 55%
Rainfall 0.03 in
Snow Depth Not available.
UV 1 out of 12
Pollen .30 out of 12
Air Quality Not available.
Flu Activity Not available.
METAR KRDU 251451Z 29010G16KT 10SM FEW035 SCT200 12/02 A3002 RMK AO2 SLP165 T01170017 51055

More Conditions Fewer Conditions

10-Day Weather Forecast

Almanac

Astronomy

Dec. 25, 2014 Rise Set
Actual Time
Civil Twilight
Nautical Twilight
Astronomical Twilight
Moon
Length of Visible Light
Length of Day
Tomorrow will be .
, % of the Moon is Illuminated

Today's Extremes

State Highs State Lows

Community

WunderPhotos

Upload Photos

1,780,302 photos uploaded!

WunderBlogs® & News

Nearby

Air Quality

  Air Quality AQ Index Pollutant
Not available.

Snow Depth

Station Depth Elevation

Earthquake Activity

City Distance Mag. Time & Date
Minimum magnitude displayed is 2.5.

Coastal Water Temperatures

Place Temperature

Nearby Weather Stations